Time;durP1;ratioP1;P1;durP2;ratioP2;P2;SDS_P1;SDS_P2;PMS_P1;PMS_P2;Temp;Humidity;BMP_temperature;BMP_pressure;BME280_temperature;BME280_humidity;BME280_pressure;Samples;Min_cycle;Max_cycle;Signal;HPM_P1;HPM_P2
2022/11/04 00:00:01;;;;;;;1.08;0.70;;;;;;;12.04;75.34;98522.03;338789;29;1836;-76
2022/11/04 00:00:13;;;;;;;1.00;0.70;;;;;;;12.07;75.63;98514.00;339267;29;1489;-76
2022/11/04 00:00:25;;;;;;;0.93;0.77;;;;;;;12.05;75.24;98514.09;339444;29;1384;-77
2022/11/04 00:00:41;;;;;;;2.22;0.80;;;;;;;12.06;75.20;98515.78;340751;29;1055;-76
2022/11/04 00:00:53;;;;;;;2.40;0.80;;;;;;;12.11;75.34;98518.97;341135;28;1212;-76
2022/11/04 00:01:05;;;;;;;2.67;0.82;;;;;;;12.14;75.20;98512.75;340775;29;1144;-76
2022/11/04 00:01:17;;;;;;;2.10;0.90;;;;;;;12.11;75.44;98510.31;339812;28;1894;-76
2022/11/04 00:01:29;;;;;;;2.10;0.80;;;;;;;12.14;75.28;98507.53;340169;29;1514;-77
2022/11/04 00:01:43;;;;;;;1.30;0.80;;;;;;;12.18;74.98;98512.47;340793;29;1067;-76
2022/11/04 00:01:56;;;;;;;0.98;0.70;;;;;;;12.16;75.04;98510.91;340160;28;1632;-76
2022/11/04 00:02:08;;;;;;;0.77;0.73;;;;;;;12.15;75.11;98515.28;341065;28;1099;-77
2022/11/04 00:02:20;;;;;;;0.70;0.70;;;;;;;12.18;75.18;98514.25;340344;29;1590;-76
2022/11/04 00:02:32;;;;;;;0.90;0.68;;;;;;;12.14;74.79;98510.16;340806;29;1735;-77
2022/11/04 00:02:44;;;;;;;0.95;0.70;;;;;;;12.16;75.09;98513.50;342088;28;1163;-77
2022/11/04 00:02:56;;;;;;;1.23;0.80;;;;;;;12.18;74.87;98509.88;342017;28;1203;-77
2022/11/04 00:03:08;;;;;;;1.25;0.80;;;;;;;12.16;74.58;98510.91;341618;28;1248;-77
2022/11/04 00:03:21;;;;;;;1.23;0.77;;;;;;;12.14;75.04;98497.13;342077;28;1580;-76
2022/11/04 00:03:33;;;;;;;0.93;0.73;;;;;;;12.17;74.69;98509.94;343295;28;1519;-76
2022/11/04 00:03:45;;;;;;;1.00;0.80;;;;;;;12.10;74.61;98506.03;342131;28;1156;-76
2022/11/04 00:03:57;;;;;;;0.95;0.80;;;;;;;12.13;74.85;98516.25;342179;28;1098;-76
2022/11/04 00:04:11;;;;;;;1.33;0.80;;;;;;;12.11;74.70;98518.13;342139;28;1325;-76
2022/11/04 00:04:25;;;;;;;1.40;0.82;;;;;;;12.12;74.76;98515.44;340645;28;1516;-77
2022/11/04 00:04:37;;;;;;;0.88;0.75;;;;;;;12.16;74.73;98516.94;340535;28;1100;-77
2022/11/04 00:04:49;;;;;;;0.80;0.73;;;;;;;12.14;75.10;98507.53;341990;28;1062;-76
2022/11/04 00:05:01;;;;;;;0.82;0.70;;;;;;;12.12;75.21;98510.22;342358;28;1135;-76
2022/11/04 00:05:13;;;;;;;0.90;0.60;;;;;;;12.12;75.34;98519.81;341829;28;1610;-77
2022/11/04 00:05:25;;;;;;;1.15;0.70;;;;;;;12.13;75.37;98513.66;341279;28;1728;-76
2022/11/04 00:05:37;;;;;;;1.58;0.80;;;;;;;12.12;74.96;98514.59;341902;28;1024;-76
2022/11/04 00:05:48;;;;;;;1.30;0.80;;;;;;;12.04;75.16;98517.63;341888;28;1764;-78
2022/11/04 00:06:00;;;;;;;1.10;0.73;;;;;;;12.06;75.14;98517.56;342520;28;1540;-77
2022/11/04 00:06:12;;;;;;;2.35;0.70;;;;;;;12.10;75.45;98521.66;343651;28;1296;-77
2022/11/04 00:06:24;;;;;;;2.35;0.77;;;;;;;12.11;74.91;98512.91;343361;28;1281;-76
2022/11/04 00:06:37;;;;;;;1.45;0.80;;;;;;;12.14;75.10;98510.97;343279;28;1647;-76
2022/11/04 00:06:49;;;;;;;1.02;0.80;;;;;;;12.16;74.81;98518.72;343191;28;2004;-76
2022/11/04 00:07:00;;;;;;;0.85;0.70;;;;;;;12.13;75.14;98517.13;343247;28;1727;-77
2022/11/04 00:08:25;;;;;;;2.00;0.80;;;;;;;12.10;75.02;98514.69;343808;28;1098;-76
2022/11/04 00:08:37;;;;;;;1.25;0.80;;;;;;;12.12;75.40;98517.22;343415;28;1759;-76
2022/11/04 00:08:53;;;;;;;1.15;0.80;;;;;;;12.08;75.29;98515.72;343241;28;1181;-77
2022/11/04 00:09:08;;;;;;;0.90;0.70;;;;;;;12.09;75.17;98519.97;342287;28;1549;-77
2022/11/04 00:09:23;;;;;;;1.02;0.73;;;;;;;12.14;75.05;98513.59;341737;28;1695;-77
2022/11/04 00:09:35;;;;;;;1.10;0.80;;;;;;;12.13;75.29;98516.25;342866;28;1739;-76
2022/11/04 00:09:46;;;;;;;0.90;0.80;;;;;;;12.14;74.84;98512.75;343334;28;1050;-77
2022/11/04 00:09:59;;;;;;;0.88;0.80;;;;;;;12.11;74.76;98518.13;343456;28;1100;-77
2022/11/04 00:10:10;;;;;;;0.90;0.80;;;;;;;12.14;75.04;98523.16;343413;28;1152;-77
2022/11/04 00:12:23;;;;;;;0.95;0.85;;;;;;;12.17;75.04;98517.78;342598;28;1621;-76
2022/11/04 00:12:28;;;;;;;0.88;0.82;;;;;;;12.21;74.94;98508.84;343328;28;1143;-76
2022/11/04 00:12:40;;;;;;;1.15;0.90;;;;;;;12.19;75.04;98514.19;342714;28;1684;-76
2022/11/04 00:12:52;;;;;;;1.40;0.90;;;;;;;12.23;74.68;98512.22;343336;28;1232;-76
2022/11/04 00:13:03;;;;;;;1.13;0.80;;;;;;;12.31;74.86;98519.59;343279;28;1108;-76
2022/11/04 00:13:16;;;;;;;1.00;0.70;;;;;;;12.34;74.01;98520.25;343299;28;1770;-77
2022/11/04 00:13:28;;;;;;;1.52;0.75;;;;;;;12.29;74.41;98527.47;343052;28;1431;-77
2022/11/04 00:13:41;;;;;;;2.28;0.93;;;;;;;12.32;74.13;98527.31;342244;28;1045;-76
2022/11/04 00:13:53;;;;;;;1.77;1.00;;;;;;;12.27;74.26;98515.47;341042;29;1042;-76
2022/11/04 00:14:07;;;;;;;2.00;0.88;;;;;;;12.30;74.44;98518.75;341985;28;1724;-76
2022/11/04 00:14:19;;;;;;;1.60;0.80;;;;;;;12.35;74.16;98515.88;341456;28;1756;-75
2022/11/04 00:14:32;;;;;;;1.70;0.90;;;;;;;12.36;74.16;98513.19;342146;28;1777;-77
2022/11/04 00:14:43;;;;;;;1.20;1.00;;;;;;;12.28;74.10;98525.81;340539;29;1051;-77
2022/11/04 00:17:18;;;;;;;1.20;1.00;;;;;;;12.30;74.45;98518.75;340847;29;1048;-76
2022/11/04 00:17:18;;;;;;;1.30;0.80;;;;;;;12.37;73.94;98522.69;343935;28;1019;-76
2022/11/04 00:17:30;;;;;;;1.20;0.80;;;;;;;12.39;74.21;98527.78;343040;28;1667;-77
2022/11/04 00:17:42;;;;;;;1.25;0.90;;;;;;;12.33;73.85;98530.75;343676;28;1090;-79
2022/11/04 00:17:54;;;;;;;1.13;0.90;;;;;;;12.35;74.49;98526.28;343562;28;1168;-79
2022/11/04 00:18:06;;;;;;;1.08;0.80;;;;;;;12.31;74.30;98520.41;342077;28;1064;-78
2022/11/04 00:18:18;;;;;;;1.40;0.90;;;;;;;12.31;74.54;98525.63;341360;28;1580;-77
2022/11/04 00:18:30;;;;;;;1.20;0.80;;;;;;;12.36;74.34;98533.19;342259;28;1715;-77
2022/11/04 00:18:42;;;;;;;0.95;0.77;;;;;;;12.34;74.26;98525.47;342278;28;1027;-77
2022/11/04 00:18:54;;;;;;;0.90;0.70;;;;;;;12.32;74.41;98524.72;341944;28;1215;-76
2022/11/04 00:19:06;;;;;;;0.98;0.80;;;;;;;12.41;74.29;98525.94;342097;28;1031;-76
2022/11/04 00:19:18;;;;;;;1.02;0.85;;;;;;;12.43;74.06;98529.28;340403;28;1587;-78
2022/11/04 00:28:51;;;;;;;1.20;0.88;;;;;;;12.31;74.79;98530.84;342360;28;1274;-76
2022/11/04 00:29:03;;;;;;;1.00;0.70;;;;;;;12.36;75.13;98539.25;342227;28;1060;-76
2022/11/04 00:29:15;;;;;;;0.95;0.80;;;;;;;12.34;75.09;98530.69;342162;28;1036;-76
2022/11/04 00:29:27;;;;;;;3.20;0.82;;;;;;;12.27;74.97;98531.94;342615;28;1831;-77
2022/11/04 00:29:39;;;;;;;3.30;0.90;;;;;;;12.22;75.04;98530.56;343578;28;1803;-78
2022/11/04 00:29:51;;;;;;;2.00;0.77;;;;;;;12.26;75.52;98527.69;343429;28;1023;-76
2022/11/04 00:30:07;;;;;;;0.73;0.70;;;;;;;12.26;75.38;98526.84;342005;28;1234;-76
2022/11/04 00:30:19;;;;;;;1.30;0.82;;;;;;;12.18;75.82;98529.88;343122;28;1323;-77
2022/11/04 00:30:31;;;;;;;1.48;1.00;;;;;;;12.16;75.48;98526.53;343061;28;1909;-78
2022/11/04 00:30:42;;;;;;;1.58;1.10;;;;;;;12.19;75.44;98515.91;343275;28;1159;-79
2022/11/04 00:30:56;;;;;;;1.55;0.98;;;;;;;12.24;75.35;98524.31;343522;28;1165;-76
2022/11/04 00:33:25;;;;;;;1.73;1.08;;;;;;;12.31;74.30;98520.41;342759;28;1494;-76
2022/11/04 00:33:37;;;;;;;2.10;1.00;;;;;;;12.30;74.69;98523.97;342493;28;1514;-78
2022/11/04 00:33:50;;;;;;;2.20;1.00;;;;;;;12.21;74.90;98532.28;343205;28;1016;-79
2022/11/04 00:34:02;;;;;;;2.03;1.00;;;;;;;12.24;74.97;98529.53;343577;28;893;-76
2022/11/04 00:34:14;;;;;;;1.17;0.90;;;;;;;12.26;74.58;98540.69;343260;28;1251;-77
2022/11/04 00:34:26;;;;;;;1.02;0.93;;;;;;;12.35;74.80;98540.19;342571;28;1807;-76
2022/11/04 00:34:38;;;;;;;1.50;1.00;;;;;;;12.34;74.91;98540.28;343183;28;1715;-77
2022/11/04 00:34:50;;;;;;;1.38;1.00;;;;;;;12.33;74.55;98552.44;343300;28;1039;-77
2022/11/04 00:35:02;;;;;;;1.20;0.90;;;;;;;12.29;74.45;98543.13;343177;28;1746;-77
2022/11/04 00:35:14;;;;;;;1.30;0.80;;;;;;;12.26;74.86;98543.31;342753;28;1635;-77
2022/11/04 00:35:26;;;;;;;1.33;0.80;;;;;;;12.29;74.92;98540.50;342843;28;1780;-77
2022/11/04 00:35:38;;;;;;;1.75;0.82;;;;;;;12.26;75.10;98543.31;343615;28;1773;-77
2022/11/04 00:35:54;;;;;;;2.10;0.90;;;;;;;12.29;75.01;98543.13;343406;28;1341;-77
2022/11/04 00:36:06;;;;;;;1.98;0.80;;;;;;;12.34;74.97;98551.53;342071;28;1083;-76
2022/11/04 00:36:19;;;;;;;1.52;0.80;;;;;;;12.33;75.10;98534.19;342331;28;1348;-77
2022/11/04 00:36:31;;;;;;;1.50;0.80;;;;;;;12.31;75.05;98554.28;343505;28;1782;-77
2022/11/04 00:36:43;;;;;;;1.48;0.80;;;;;;;12.32;74.83;98550.78;342818;28;1540;-77
2022/11/04 00:36:55;;;;;;;1.70;0.90;;;;;;;12.29;74.59;98558.75;343015;28;1366;-78
2022/11/04 00:37:07;;;;;;;2.75;0.90;;;;;;;12.32;74.59;98553.38;341442;28;1711;-77
2022/11/04 00:37:19;;;;;;;2.40;0.90;;;;;;;12.32;74.64;98558.59;341463;28;1858;-78
2022/11/04 00:37:31;;;;;;;2.30;0.93;;;;;;;12.43;74.58;98549.31;343454;28;1183;-77
2022/11/04 00:37:43;;;;;;;1.30;0.90;;;;;;;12.37;74.45;98556.56;343304;28;1065;-77
2022/11/04 00:37:55;;;;;;;1.10;0.88;;;;;;;12.35;74.62;98552.34;342359;28;1070;-77
2022/11/04 00:38:07;;;;;;;0.93;0.80;;;;;;;12.29;74.82;98550.94;341711;28;1723;-77
2022/11/04 00:38:20;;;;;;;0.98;0.80;;;;;;;12.34;74.88;98556.72;341945;28;1559;-78
2022/11/04 00:38:32;;;;;;;1.00;0.90;;;;;;;12.36;74.88;98554.88;341705;28;1637;-77
2022/11/04 00:38:44;;;;;;;1.30;1.00;;;;;;;12.34;74.80;98555.91;342048;28;1160;-77
2022/11/04 00:38:57;;;;;;;1.23;0.90;;;;;;;12.36;74.61;98554.88;341973;28;1061;-77
2022/11/04 00:39:09;;;;;;;1.35;0.90;;;;;;;12.37;75.04;98559.19;342153;28;1184;-78
2022/11/04 00:39:20;;;;;;;1.00;0.80;;;;;;;12.32;74.65;98558.59;340967;28;1531;-78
2022/11/04 00:39:32;;;;;;;1.52;0.70;;;;;;;12.31;74.96;98561.28;341700;28;1470;-77
2022/11/04 00:39:44;;;;;;;1.63;0.77;;;;;;;12.25;75.34;98557.25;342204;28;1039;-76
2022/11/04 00:39:56;;;;;;;2.45;1.02;;;;;;;12.25;75.49;98557.25;342044;28;1227;-76
2022/11/04 00:40:11;;;;;;;1.70;1.07;;;;;;;12.27;75.24;98555.41;341846;28;1125;-77
2022/11/04 00:40:23;;;;;;;1.45;0.90;;;;;;;12.25;75.04;98551.19;342032;28;1643;-76
2022/11/04 00:40:35;;;;;;;2.03;1.00;;;;;;;12.30;75.29;98563.06;340329;28;1442;-77
2022/11/04 00:40:47;;;;;;;2.00;0.93;;;;;;;12.27;75.13;98559.78;339537;29;2126;-78
2022/11/04 00:40:59;;;;;;;1.15;0.82;;;;;;;12.27;74.97;98550.19;339320;29;1131;-79
2022/11/04 00:41:24;;;;;;;1.15;0.90;;;;;;;12.29;74.88;98553.53;339539;29;1048;-76
2022/11/04 00:41:36;;;;;;;1.38;1.02;;;;;;;12.27;75.16;98570.19;341131;28;1736;-79
2022/11/04 00:41:48;;;;;;;1.50;1.10;;;;;;;12.28;75.33;98545.84;342033;28;1082;-77
2022/11/04 00:42:00;;;;;;;1.75;0.82;;;;;;;12.25;75.15;98557.25;341904;28;1755;-76
2022/11/04 00:42:12;;;;;;;1.83;0.80;;;;;;;12.20;75.29;98554.09;341813;28;1063;-77
2022/11/04 00:42:24;;;;;;;1.60;0.90;;;;;;;12.26;75.26;98558.09;343061;28;1200;-77
2022/11/04 00:42:36;;;;;;;1.70;1.00;;;;;;;12.32;75.64;98562.97;342300;28;1428;-77
2022/11/04 00:42:48;;;;;;;1.60;1.00;;;;;;;12.28;75.45;98562.31;343321;28;1525;-78
2022/11/04 00:43:00;;;;;;;1.63;0.95;;;;;;;12.30;75.49;98567.44;343468;28;1116;-77
2022/11/04 00:43:12;;;;;;;1.58;0.88;;;;;;;12.30;74.99;98559.63;343288;28;1068;-77
2022/11/04 00:43:23;;;;;;;1.15;0.88;;;;;;;12.24;74.90;98555.59;342322;28;1480;-77
2022/11/04 00:43:35;;;;;;;1.30;0.90;;;;;;;12.24;75.06;98558.19;343222;28;1849;-77
2022/11/04 00:43:47;;;;;;;1.70;0.88;;;;;;;12.22;75.24;98567.84;343447;28;1198;-79
2022/11/04 00:44:01;;;;;;;2.00;0.80;;;;;;;12.28;75.12;98556.25;343441;28;1787;-77
2022/11/04 00:44:13;;;;;;;1.58;0.80;;;;;;;12.30;75.11;98552.63;342356;28;1462;-79
2022/11/04 00:44:25;;;;;;;1.65;0.95;;;;;;;12.28;74.74;98557.09;342272;28;1564;-77
2022/11/04 00:44:37;;;;;;;1.52;0.90;;;;;;;12.24;75.10;98555.59;342158;28;1004;-78
2022/11/04 00:44:49;;;;;;;1.05;0.82;;;;;;;12.25;75.03;98554.66;343315;28;1269;-78
2022/11/04 00:45:01;;;;;;;0.82;0.80;;;;;;;12.30;74.83;98572.63;342375;28;1464;-80
2022/11/04 00:45:13;;;;;;;1.35;0.88;;;;;;;12.29;74.73;98561.34;341625;28;1558;-77
2022/11/04 00:45:25;;;;;;;1.70;1.05;;;;;;;12.28;74.73;98557.09;341984;28;1548;-77
2022/11/04 00:45:38;;;;;;;2.10;1.08;;;;;;;12.34;74.65;98561.94;341913;28;1201;-78
2022/11/04 00:45:50;;;;;;;2.00;1.05;;;;;;;12.30;75.06;98557.00;342263;28;1066;-78
2022/11/04 00:46:02;;;;;;;2.10;0.93;;;;;;;12.30;74.89;98552.63;342207;28;1099;-77
2022/11/04 00:46:14;;;;;;;1.70;0.95;;;;;;;12.29;75.11;98553.53;341519;28;1497;-76
2022/11/04 00:46:31;;;;;;;1.30;0.77;;;;;;;12.24;74.97;98550.38;341086;28;1585;-77
2022/11/04 00:46:43;;;;;;;1.60;0.88;;;;;;;12.26;74.82;98553.72;341576;28;1574;-77
2022/11/04 00:46:55;;;;;;;1.55;0.88;;;;;;;12.17;75.42;98555.09;342127;28;1634;-77
2022/11/04 00:47:07;;;;;;;1.42;0.82;;;;;;;12.19;75.52;98558.47;341447;28;1782;-77
2022/11/04 00:47:19;;;;;;;1.08;0.80;;;;;;;12.16;75.50;98552.56;343024;28;1802;-78
2022/11/04 00:47:31;;;;;;;1.05;0.80;;;;;;;12.19;75.31;98555.00;343415;28;1293;-77
2022/11/04 00:47:43;;;;;;;1.58;0.88;;;;;;;12.17;75.26;98554.25;343272;28;1044;-77
2022/11/04 00:47:55;;;;;;;1.65;0.80;;;;;;;12.17;75.53;98554.25;343451;28;1044;-81
2022/11/04 00:48:08;;;;;;;1.27;0.85;;;;;;;12.16;75.39;98555.19;343328;28;1497;-80
2022/11/04 00:48:20;;;;;;;1.15;0.80;;;;;;;12.18;75.32;98561.16;343143;28;1640;-79
2022/11/04 00:48:32;;;;;;;0.90;0.70;;;;;;;12.19;75.84;98555.84;341949;28;1573;-79
2022/11/04 00:48:44;;;;;;;1.23;0.70;;;;;;;12.19;75.48;98557.59;342398;28;1055;-80
2022/11/04 00:48:56;;;;;;;1.30;0.80;;;;;;;12.19;75.16;98557.59;342328;28;1187;-80
2022/11/04 00:49:08;;;;;;;1.90;0.80;;;;;;;12.25;75.08;98556.41;341436;28;1606;-83
2022/11/04 00:49:20;;;;;;;1.88;0.85;;;;;;;12.26;75.26;98552.91;341905;28;1727;-81
2022/11/04 00:49:32;;;;;;;1.35;0.80;;;;;;;12.31;74.93;98550.84;342421;28;1125;-79
2022/11/04 00:49:44;;;;;;;1.10;0.82;;;;;;;12.23;74.92;98559.09;342280;28;1417;-81
2022/11/04 00:49:56;;;;;;;1.63;0.80;;;;;;;12.20;75.06;98564.50;342490;28;1100;-81
2022/11/04 00:50:08;;;;;;;3.17;0.80;;;;;;;12.21;75.38;98560.97;342383;28;1188;-81
2022/11/04 00:50:20;;;;;;;3.30;0.90;;;;;;;12.23;75.19;98558.28;341643;28;1577;-82
2022/11/04 00:50:32;;;;;;;2.25;0.85;;;;;;;12.16;75.34;98555.19;341389;28;1232;-80
2022/11/04 00:50:43;;;;;;;1.98;0.80;;;;;;;12.19;74.89;98568.88;342118;28;1056;-79
2022/11/04 00:50:56;;;;;;;2.00;0.80;;;;;;;12.26;74.88;98560.72;342143;28;1043;-78
2022/11/04 00:51:07;;;;;;;2.25;0.90;;;;;;;12.28;75.16;98559.69;341976;28;1700;-80
2022/11/04 00:51:20;;;;;;;1.95;0.90;;;;;;;12.24;75.27;98560.78;341377;28;1400;-83
2022/11/04 00:51:32;;;;;;;2.25;1.00;;;;;;;12.19;74.87;98557.59;340431;29;1312;-80
2022/11/04 00:51:44;;;;;;;1.65;0.90;;;;;;;12.19;75.09;98557.59;341013;28;1748;-79
2022/11/04 00:51:56;;;;;;;1.42;0.90;;;;;;;12.07;75.34;98564.34;342395;28;1185;-79
2022/11/04 00:52:08;;;;;;;1.00;0.80;;;;;;;12.07;75.86;98561.72;340549;29;1269;-79
2022/11/04 00:52:20;;;;;;;1.17;0.80;;;;;;;12.10;75.48;98569.38;341128;28;1500;-82
2022/11/04 00:52:32;;;;;;;1.40;0.80;;;;;;;12.12;75.43;98561.50;340808;29;1569;-80
2022/11/04 00:52:44;;;;;;;1.88;0.98;;;;;;;12.14;75.50;98565.69;340057;29;1038;-79
2022/11/04 00:53:03;;;;;;;1.50;0.90;;;;;;;12.17;75.43;98559.44;343216;28;1182;-79
2022/11/04 00:53:15;;;;;;;1.10;0.80;;;;;;;12.19;75.03;98568.88;342701;28;1023;-79
2022/11/04 00:53:27;;;;;;;1.40;0.90;;;;;;;12.24;74.89;98562.56;341599;28;1617;-78
2022/11/04 00:53:39;;;;;;;1.17;0.85;;;;;;;12.16;75.10;98560.38;342940;28;1770;-79
2022/11/04 00:53:51;;;;;;;0.95;0.73;;;;;;;12.21;75.55;98562.72;343709;28;1262;-79
2022/11/04 00:54:03;;;;;;;1.02;0.70;;;;;;;12.21;75.14;98566.16;343295;28;1778;-79
2022/11/04 00:54:15;;;;;;;1.10;0.70;;;;;;;12.26;75.15;98564.16;342255;28;1304;-79
2022/11/04 00:54:27;;;;;;;1.33;0.90;;;;;;;12.24;74.90;98560.78;343227;28;1779;-79
2022/11/04 00:54:39;;;;;;;1.20;0.90;;;;;;;12.18;75.15;98561.97;342968;28;1856;-79
2022/11/04 00:54:50;;;;;;;1.58;1.00;;;;;;;12.15;75.17;98563.91;343486;28;1059;-79
2022/11/04 00:55:03;;;;;;;2.50;1.15;;;;;;;12.08;75.69;98565.19;343008;28;1649;-79
2022/11/04 00:55:15;;;;;;;2.70;1.10;;;;;;;12.08;75.64;98570.41;342284;28;1747;-79
2022/11/04 00:55:27;;;;;;;1.85;0.85;;;;;;;12.11;75.79;98565.00;342489;28;1350;-79
2022/11/04 00:55:39;;;;;;;1.77;0.80;;;;;;;12.14;75.23;98564.84;343067;28;1735;-81
2022/11/04 00:55:51;;;;;;;1.88;0.75;;;;;;;12.05;75.41;98560.16;343460;28;1056;-79
2022/11/04 00:56:03;;;;;;;1.15;0.77;;;;;;;12.07;75.39;98568.72;343593;28;1041;-80
2022/11/04 00:56:15;;;;;;;1.38;0.80;;;;;;;12.01;75.92;98561.25;343508;28;1078;-80
2022/11/04 00:56:27;;;;;;;1.75;0.80;;;;;;;12.04;75.68;98568.91;342488;28;1569;-79
2022/11/04 00:56:40;;;;;;;1.73;0.88;;;;;;;12.05;76.10;98562.75;343535;28;1750;-80
2022/11/04 00:56:52;;;;;;;2.47;0.90;;;;;;;12.04;75.85;98564.53;343117;28;1523;-79
2022/11/04 00:57:07;;;;;;;2.15;0.90;;;;;;;12.01;76.30;98563.84;343742;28;1207;-79
2022/11/04 00:57:19;;;;;;;1.77;0.80;;;;;;;12.08;76.24;98573.00;343952;28;1259;-80
2022/11/04 00:57:31;;;;;;;1.67;0.80;;;;;;;12.12;76.14;98583.16;343466;28;1442;-81
2022/11/04 00:57:43;;;;;;;2.38;0.90;;;;;;;12.10;75.99;98564.19;343721;28;1090;-79
2022/11/04 00:57:57;;;;;;;2.28;0.95;;;;;;;12.11;75.96;98571.09;343473;28;1067;-79
2022/11/04 00:58:09;;;;;;;1.60;0.98;;;;;;;12.10;75.76;98563.34;342772;28;1720;-79
2022/11/04 00:58:21;;;;;;;1.70;1.00;;;;;;;12.23;75.51;98569.53;343937;28;1832;-79
2022/11/04 00:58:32;;;;;;;1.67;0.90;;;;;;;12.16;75.54;98569.03;344139;28;1035;-79
2022/11/04 00:58:44;;;;;;;1.60;0.98;;;;;;;12.20;75.34;98569.72;343861;28;1726;-79
2022/11/04 00:59:00;;;;;;;1.23;0.90;;;;;;;12.23;75.33;98564.31;343751;28;1093;-79
2022/11/04 00:59:11;;;;;;;1.40;0.90;;;;;;;12.21;75.44;98566.16;343135;28;1802;-79
2022/11/04 00:59:25;;;;;;;1.30;0.98;;;;;;;12.12;75.79;98562.31;343476;28;1564;-81
2022/11/04 00:59:38;;;;;;;1.27;1.00;;;;;;;12.07;75.78;98559.13;343029;28;1036;-80
2022/11/04 00:59:50;;;;;;;1.10;1.00;;;;;;;12.02;76.09;98566.38;342961;28;1095;-79
2022/11/04 01:00:03;;;;;;;1.10;1.00;;;;;;;12.05;75.99;98557.53;341339;29;1040;-79
2022/11/04 01:00:15;;;;;;;1.10;0.95;;;;;;;12.05;76.19;98565.34;341046;29;1657;-79
2022/11/04 01:00:27;;;;;;;1.15;0.90;;;;;;;12.04;76.20;98571.50;341407;29;1092;-80
2022/11/04 01:00:39;;;;;;;1.08;0.80;;;;;;;12.06;76.13;98567.88;341760;28;1080;-79
2022/11/04 01:00:51;;;;;;;1.10;0.90;;;;;;;12.03;76.10;98556.78;342989;28;1082;-80
2022/11/04 01:01:10;;;;;;;1.10;1.00;;;;;;;12.04;75.98;98558.47;342169;28;1062;-80
2022/11/04 01:01:22;;;;;;;1.38;0.90;;;;;;;11.95;76.29;98560.69;340791;28;1500;-79
2022/11/04 01:01:35;;;;;;;1.50;0.80;;;;;;;12.03;76.39;98556.78;341005;29;1065;-79
2022/11/04 01:01:47;;;;;;;1.17;0.82;;;;;;;11.95;76.23;98558.06;341593;29;1136;-80
2022/11/04 01:01:59;;;;;;;1.50;0.90;;;;;;;11.96;76.22;98562.34;342705;28;1228;-79
2022/11/04 01:02:12;;;;;;;1.30;0.75;;;;;;;12.05;75.83;98560.97;343191;28;1533;-79
2022/11/04 01:02:25;;;;;;;0.75;0.75;;;;;;;12.08;75.64;98563.44;343157;28;1592;-81
2022/11/04 01:02:37;;;;;;;1.23;0.98;;;;;;;12.06;75.68;98578.31;343904;28;1698;-79
2022/11/04 01:02:49;;;;;;;1.90;1.10;;;;;;;11.99;75.64;98556.13;344321;28;1064;-79
2022/11/04 01:03:01;;;;;;;1.85;1.05;;;;;;;11.95;76.17;98575.44;343880;28;1060;-80
2022/11/04 01:03:13;;;;;;;2.08;1.00;;;;;;;11.97;76.34;98577.06;344087;28;1284;-80
2022/11/04 01:03:24;;;;;;;2.05;0.90;;;;;;;12.01;76.06;98556.88;342742;28;1532;-80
2022/11/04 01:03:37;;;;;;;2.70;1.00;;;;;;;12.02;76.31;98565.53;343349;28;1679;-79
2022/11/04 01:03:51;;;;;;;1.90;0.95;;;;;;;11.98;75.84;98560.50;343545;28;1056;-81
2022/11/04 01:04:03;;;;;;;1.55;1.00;;;;;;;12.03;75.96;98564.59;342547;28;1175;-79
2022/11/04 01:04:15;;;;;;;1.45;1.00;;;;;;;11.95;76.39;98568.50;342671;28;1121;-79
2022/11/04 01:04:27;;;;;;;1.75;0.90;;;;;;;11.90;76.74;98562.69;343233;28;1637;-80
2022/11/04 01:04:39;;;;;;;2.30;0.95;;;;;;;11.92;76.52;98570.41;343816;28;1770;-80
2022/11/04 01:04:51;;;;;;;2.15;1.00;;;;;;;11.96;76.96;98562.34;343744;28;1048;-79
2022/11/04 01:05:03;;;;;;;1.15;0.95;;;;;;;11.90;76.63;98562.69;343915;28;1008;-79
2022/11/04 01:05:15;;;;;;;1.08;0.80;;;;;;;11.90;76.81;98586.13;343963;28;1031;-80
2022/11/04 01:05:27;;;;;;;1.35;0.80;;;;;;;11.94;76.31;98561.59;343509;28;1810;-79
2022/11/04 01:05:39;;;;;;;1.40;0.90;;;;;;;11.99;75.96;98556.13;343966;28;1715;-79
2022/11/04 01:05:51;;;;;;;1.17;0.80;;;;;;;11.96;75.90;98557.13;342912;28;1082;-79
2022/11/04 01:06:04;;;;;;;1.48;0.80;;;;;;;11.98;76.11;98560.50;341311;28;1346;-80
2022/11/04 01:06:17;;;;;;;1.98;1.00;;;;;;;12.05;76.15;98557.53;340879;28;2113;-80
2022/11/04 01:06:29;;;;;;;1.60;1.00;;;;;;;12.03;76.11;98560.22;340629;28;1948;-78
2022/11/04 01:06:41;;;;;;;2.25;1.00;;;;;;;12.11;75.80;98557.19;341577;28;1325;-79
2022/11/04 01:06:53;;;;;;;1.92;0.90;;;;;;;12.03;75.87;98569.81;342189;28;1628;-80
2022/11/04 01:07:05;;;;;;;2.42;1.00;;;;;;;11.95;76.02;98570.22;341553;28;1743;-80
2022/11/04 01:07:16;;;;;;;2.53;1.00;;;;;;;11.96;75.97;98585.78;341676;28;1767;-80
2022/11/04 01:07:29;;;;;;;2.10;0.90;;;;;;;11.92;75.86;98576.47;343036;28;1019;-79
2022/11/04 01:07:41;;;;;;;2.50;0.90;;;;;;;11.90;75.98;98562.69;340864;29;1075;-80
2022/11/04 01:07:55;;;;;;;1.80;0.90;;;;;;;11.87;75.86;98575.84;341089;29;1205;-80
2022/11/04 01:08:07;;;;;;;1.50;0.90;;;;;;;11.88;75.98;98572.31;341617;28;1820;-79
2022/11/04 01:08:19;;;;;;;1.30;1.00;;;;;;;11.86;75.68;98576.75;342469;28;1109;-78
2022/11/04 01:08:31;;;;;;;1.33;1.10;;;;;;;11.91;75.60;98644.25;342737;28;1978;-82
2022/11/04 01:08:44;;;;;;;1.20;1.00;;;;;;;11.98;75.22;98591.75;342564;28;1165;-80
2022/11/04 01:09:00;;;;;;;1.15;0.90;;;;;;;11.98;74.88;98560.50;342477;28;1237;-79
2022/11/04 01:09:13;;;;;;;1.30;0.90;;;;;;;11.99;74.67;98556.97;342375;28;1137;-80
2022/11/04 01:09:24;;;;;;;1.25;0.90;;;;;;;11.95;75.03;98563.28;341415;28;1672;-83
2022/11/04 01:09:36;;;;;;;1.35;0.90;;;;;;;11.95;74.99;98575.44;342561;28;1679;-80
2022/11/04 01:09:48;;;;;;;1.33;0.93;;;;;;;11.90;75.35;98570.50;342714;28;1152;-82
2022/11/04 01:10:00;;;;;;;1.27;0.98;;;;;;;11.84;75.71;98570.81;342415;28;1177;-79
2022/11/04 01:10:12;;;;;;;1.50;1.08;;;;;;;11.85;75.80;98575.09;340942;29;1774;-79
2022/11/04 01:10:24;;;;;;;1.50;1.10;;;;;;;11.91;75.56;98574.78;340631;28;2342;-81
2022/11/04 01:10:43;;;;;;;1.30;1.10;;;;;;;11.87;75.80;98568.03;341647;29;1274;-79
2022/11/04 01:10:55;;;;;;;1.30;0.90;;;;;;;11.88;75.80;98568.88;341714;29;1109;-80
2022/11/04 01:11:08;;;;;;;1.40;0.90;;;;;;;11.96;75.66;98562.34;341372;29;1028;-80
2022/11/04 01:11:20;;;;;;;2.05;0.90;;;;;;;12.01;75.29;98563.84;341820;28;1083;-79
2022/11/04 01:11:32;;;;;;;2.10;0.90;;;;;;;11.98;75.82;98573.50;341327;28;1509;-79
2022/11/04 01:11:44;;;;;;;2.25;0.95;;;;;;;11.96;75.81;98561.50;341077;29;1054;-81
2022/11/04 01:11:56;;;;;;;1.27;1.00;;;;;;;11.92;75.88;98562.59;341363;29;1135;-80
2022/11/04 01:12:08;;;;;;;2.30;1.20;;;;;;;11.98;75.61;98563.09;340427;29;1967;-79
2022/11/04 01:12:20;;;;;;;3.83;1.15;;;;;;;11.99;76.12;98567.41;342394;28;1315;-79
2022/11/04 01:12:32;;;;;;;3.70;1.00;;;;;;;11.97;75.89;98568.38;342411;28;1032;-80
2022/11/04 01:12:44;;;;;;;1.70;0.90;;;;;;;11.96;75.64;98577.13;342054;28;1786;-78
2022/11/04 01:12:56;;;;;;;3.70;1.00;;;;;;;11.96;75.77;98569.31;342622;28;1064;-79
2022/11/04 01:13:08;;;;;;;3.88;1.00;;;;;;;11.93;76.09;98552.13;342900;28;1084;-81
2022/11/04 01:13:20;;;;;;;2.55;0.90;;;;;;;11.93;76.15;98572.09;342515;28;1182;-80
2022/11/04 01:13:32;;;;;;;2.05;0.90;;;;;;;11.89;75.82;98597.47;342189;28;1281;-79
2022/11/04 01:13:44;;;;;;;1.40;0.90;;;;;;;11.89;75.72;98570.56;341564;29;1326;-79
2022/11/04 01:13:57;;;;;;;1.10;0.90;;;;;;;11.87;75.50;98565.44;342990;28;833;-79
2022/11/04 01:14:09;;;;;;;1.08;0.90;;;;;;;11.90;75.65;98573.09;341781;28;1818;-79
2022/11/04 01:14:22;;;;;;;1.08;0.90;;;;;;;11.95;75.47;98591.06;343612;28;1790;-80
2022/11/04 01:14:34;;;;;;;1.40;0.90;;;;;;;11.99;75.64;98583.03;342546;28;1056;-80
2022/11/04 01:14:48;;;;;;;1.35;0.95;;;;;;;11.98;75.42;98573.50;342325;28;1782;-80
2022/11/04 01:15:00;;;;;;;1.17;0.90;;;;;;;11.95;75.63;98578.03;342482;28;1089;-79
2022/11/04 01:15:12;;;;;;;1.17;1.00;;;;;;;11.98;75.36;98560.50;342267;28;1579;-80
2022/11/04 01:15:24;;;;;;;1.88;1.02;;;;;;;11.99;75.55;98576.94;341980;28;1698;-80
2022/11/04 01:15:37;;;;;;;1.85;0.98;;;;;;;11.97;75.34;98574.44;342731;28;1158;-80
2022/11/04 01:15:48;;;;;;;2.13;0.90;;;;;;;11.94;75.48;98561.59;341892;29;1465;-80
2022/11/04 01:16:03;;;;;;;1.90;0.88;;;;;;;11.90;75.95;98559.25;341386;29;1263;-80
2022/11/04 01:16:16;;;;;;;2.00;1.00;;;;;;;11.94;75.67;98564.19;341397;29;880;-82
2022/11/04 01:16:29;;;;;;;2.13;1.00;;;;;;;11.98;75.62;98573.50;341967;28;1680;-79
2022/11/04 01:16:42;;;;;;;1.77;0.93;;;;;;;11.97;75.70;98556.22;343869;28;1636;-81